createdAt,value
2023-02-11T00:00:51.235Z,5.07
2023-02-11T00:02:54.454Z,5.07
2023-02-11T00:04:57.906Z,5.08
2023-02-11T00:07:02.139Z,5.08
2023-02-11T00:09:07.215Z,5.08
2023-02-11T00:11:14.613Z,5.09
2023-02-11T00:13:17.645Z,5.09
2023-02-11T00:15:21.180Z,5.09
2023-02-11T00:17:24.263Z,5.09
2023-02-11T00:19:27.400Z,5.10
2023-02-11T00:21:30.848Z,5.10
2023-02-11T00:23:33.928Z,5.10
2023-02-11T00:25:41.871Z,5.13
2023-02-11T00:27:44.954Z,5.11
2023-02-11T00:29:49.159Z,5.10
2023-02-11T00:31:52.545Z,5.11
2023-02-11T00:33:56.228Z,5.11
2023-02-11T00:35:59.290Z,5.10
2023-02-11T00:38:02.356Z,5.09
2023-02-11T00:40:06.900Z,5.07
2023-02-11T00:42:15.542Z,5.06
2023-02-11T00:44:19.203Z,5.04
2023-02-11T00:46:24.618Z,5.02
2023-02-11T00:48:27.738Z,5.00
2023-02-11T00:50:43.063Z,5.00
2023-02-11T00:52:46.126Z,4.99
2023-02-11T00:54:49.179Z,4.99
2023-02-11T00:56:52.264Z,4.98
2023-02-11T00:58:56.749Z,4.97
2023-02-11T01:01:00.065Z,4.98
2023-02-11T01:03:03.389Z,4.96
2023-02-11T01:05:07.064Z,4.97
2023-02-11T01:07:10.228Z,4.97
2023-02-11T01:09:13.304Z,5.00
2023-02-11T01:11:18.664Z,5.01
2023-02-11T01:13:21.771Z,5.02
2023-02-11T01:15:26.423Z,5.02
2023-02-11T01:17:29.683Z,5.04
2023-02-11T01:19:32.762Z,5.03
2023-02-11T01:21:35.888Z,5.05
2023-02-11T01:23:39.049Z,5.06
2023-02-11T01:25:42.133Z,5.08
2023-02-11T01:27:45.240Z,5.09
2023-02-11T01:29:48.344Z,5.11
2023-02-11T01:31:52.800Z,5.14
2023-02-11T01:33:55.978Z,5.15
2023-02-11T01:36:02.888Z,5.16
2023-02-11T01:38:06.150Z,5.17
2023-02-11T01:40:14.097Z,5.18
2023-02-11T01:42:18.790Z,5.19
2023-02-11T01:44:26.598Z,5.19
2023-02-11T01:46:33.392Z,5.20
2023-02-11T01:48:42.808Z,5.20
2023-02-11T01:50:48.459Z,5.20
2023-02-11T01:52:51.549Z,5.21
2023-02-11T01:55:15.151Z,5.20
2023-02-11T01:57:25.275Z,5.18
2023-02-11T01:59:33.327Z,5.18
2023-02-11T02:01:40.163Z,5.17
2023-02-11T02:03:48.300Z,5.17
2023-02-11T02:05:58.527Z,5.15
2023-02-11T02:08:07.758Z,5.15
2023-02-11T02:10:14.836Z,5.15
2023-02-11T02:12:17.913Z,5.15
2023-02-11T02:14:21.611Z,5.15
2023-02-11T02:16:30.812Z,5.17
2023-02-11T02:18:48.816Z,5.18
2023-02-11T02:21:30.583Z,5.19
2023-02-11T02:23:53.693Z,5.21
2023-02-11T02:26:39.200Z,5.23
2023-02-11T02:29:12.216Z,5.27
2023-02-11T02:31:35.410Z,5.30
2023-02-11T02:33:45.176Z,5.31
2023-02-11T02:35:52.981Z,5.32
2023-02-11T02:38:02.664Z,5.33
2023-02-11T02:40:12.745Z,5.35
2023-02-11T02:42:17.181Z,5.36
2023-02-11T02:44:20.854Z,5.39
2023-02-11T02:46:26.538Z,5.38
2023-02-11T02:48:31.641Z,5.39
2023-02-11T02:50:39.027Z,5.39
2023-02-11T02:52:50.691Z,5.40
2023-02-11T02:55:14.960Z,5.41
2023-02-11T02:57:30.442Z,5.41
2023-02-11T02:59:47.656Z,5.41
2023-02-11T03:01:58.422Z,5.40
2023-02-11T03:04:09.599Z,5.39
2023-02-11T03:06:20.314Z,5.38
2023-02-11T03:08:30.200Z,5.38
2023-02-11T03:10:37.501Z,5.37
2023-02-11T03:12:42.022Z,5.35
2023-02-11T03:14:46.126Z,5.34
2023-02-11T03:16:51.834Z,5.33
2023-02-11T03:19:01.854Z,5.32
2023-02-11T03:21:08.766Z,5.32
2023-02-11T03:23:20.033Z,5.33
2023-02-11T03:25:30.452Z,5.33
2023-02-11T03:27:39.291Z,5.33
2023-02-11T03:29:49.373Z,5.34
2023-02-11T03:31:57.480Z,5.34
2023-02-11T03:34:05.524Z,5.33
2023-02-11T03:36:15.180Z,5.35
2023-02-11T03:38:23.536Z,5.37
2023-02-11T03:40:29.649Z,5.39
2023-02-11T03:42:38.070Z,5.40
2023-02-11T03:44:47.266Z,5.43
2023-02-11T03:46:53.312Z,5.44
2023-02-11T03:49:00.468Z,5.47
2023-02-11T03:51:08.042Z,5.50
2023-02-11T03:53:12.919Z,5.51
2023-02-11T03:55:21.476Z,5.56
2023-02-11T03:57:25.137Z,5.57
2023-02-11T03:59:28.697Z,5.60
2023-02-11T04:01:31.918Z,5.63
2023-02-11T04:03:35.289Z,5.66
2023-02-11T04:05:39.138Z,5.68
2023-02-11T04:07:42.235Z,5.71
2023-02-11T04:09:45.376Z,5.73
2023-02-11T04:11:49.774Z,5.77
2023-02-11T04:13:52.913Z,5.80
2023-02-11T04:15:55.945Z,5.83
2023-02-11T04:17:58.981Z,5.85
2023-02-11T04:20:02.204Z,5.87
2023-02-11T04:22:05.313Z,5.89
2023-02-11T04:24:08.464Z,5.91
2023-02-11T04:26:11.607Z,5.93
2023-02-11T04:28:17.505Z,5.94
2023-02-11T04:30:20.499Z,5.96
2023-02-11T04:32:23.548Z,5.98
2023-02-11T04:34:26.699Z,6.00
2023-02-11T04:36:29.735Z,6.01
2023-02-11T04:38:32.726Z,6.04
2023-02-11T04:40:35.773Z,6.07
2023-02-11T04:42:38.997Z,6.09
2023-02-11T04:44:43.413Z,6.10
2023-02-11T04:46:46.521Z,6.12
2023-02-11T04:48:49.709Z,6.13
2023-02-11T04:50:52.959Z,6.15
2023-02-11T04:52:56.083Z,6.15
2023-02-11T04:54:59.182Z,6.15
2023-02-11T04:57:02.238Z,6.16
2023-02-11T04:59:06.069Z,6.15
2023-02-11T05:01:12.718Z,6.14
2023-02-11T05:03:15.843Z,6.14
2023-02-11T05:05:19.083Z,6.13
2023-02-11T05:07:22.181Z,6.11
2023-02-11T05:09:25.356Z,6.10
2023-02-11T05:11:28.422Z,6.08
2023-02-11T05:13:31.845Z,6.06
2023-02-11T05:15:34.980Z,6.05
2023-02-11T05:17:39.556Z,6.03
2023-02-11T05:19:43.209Z,6.02
2023-02-11T05:22:01.286Z,6.01
2023-02-11T05:24:05.680Z,5.99
2023-02-11T05:26:09.873Z,5.98
2023-02-11T05:28:13.043Z,5.97
2023-02-11T05:30:16.406Z,5.96
2023-02-11T05:32:19.439Z,5.95
2023-02-11T05:34:24.117Z,5.93
2023-02-11T05:36:27.327Z,5.93
2023-02-11T05:38:30.800Z,5.92
2023-02-11T05:40:34.332Z,5.90
2023-02-11T05:42:37.478Z,5.89
2023-02-11T05:44:40.678Z,5.89
2023-02-11T05:46:43.735Z,5.88
2023-02-11T05:48:47.017Z,5.87
2023-02-11T05:50:51.403Z,5.87
2023-02-11T05:52:54.619Z,5.87
2023-02-11T05:54:57.876Z,5.86
2023-02-11T05:57:00.938Z,5.87
2023-02-11T05:59:04.060Z,5.87
2023-02-11T06:01:07.153Z,5.87
2023-02-11T06:03:10.224Z,5.88
2023-02-11T06:05:13.264Z,5.89
2023-02-11T06:07:17.711Z,5.91
2023-02-11T06:09:20.894Z,5.92
2023-02-11T06:11:24.023Z,5.94
2023-02-11T06:13:27.137Z,5.94
2023-02-11T06:15:30.969Z,5.96
2023-02-11T06:17:34.076Z,5.97
2023-02-11T06:19:37.184Z,5.98
2023-02-11T06:21:44.079Z,5.99
2023-02-11T06:23:49.217Z,6.01
2023-02-11T06:25:53.367Z,6.04
2023-02-11T06:27:56.618Z,6.05
2023-02-11T06:29:59.839Z,6.07
2023-02-11T06:32:03.103Z,6.09
2023-02-11T06:34:06.705Z,6.11
2023-02-11T06:36:14.755Z,6.12
2023-02-11T06:38:17.835Z,6.15
2023-02-11T06:40:22.524Z,6.16
2023-02-11T06:42:25.629Z,6.16
2023-02-11T06:44:28.733Z,6.18
2023-02-11T06:46:31.786Z,6.19
2023-02-11T06:48:35.780Z,6.18
2023-02-11T06:50:39.401Z,6.18
2023-02-11T06:52:42.975Z,6.18
2023-02-11T06:54:46.141Z,6.18
2023-02-11T06:56:50.665Z,6.18
2023-02-11T06:58:55.716Z,6.15
2023-02-11T07:00:58.932Z,6.16
2023-02-11T07:03:02.079Z,6.16
2023-02-11T07:05:07.095Z,6.16
2023-02-11T07:07:10.237Z,6.16
2023-02-11T07:09:15.145Z,6.14
2023-02-11T07:11:20.630Z,6.15
2023-02-11T07:13:25.249Z,6.14
2023-02-11T07:15:28.440Z,6.14
2023-02-11T07:17:31.503Z,6.14
2023-02-11T07:19:34.558Z,6.13
2023-02-11T07:21:37.621Z,6.14
2023-02-11T07:23:41.268Z,6.13
2023-02-11T07:25:44.386Z,6.13
2023-02-11T07:27:47.457Z,6.13
2023-02-11T07:29:51.997Z,6.13
2023-02-11T07:31:55.324Z,6.14
2023-02-11T07:34:00.322Z,6.14
2023-02-11T07:36:04.218Z,6.15
2023-02-11T07:38:07.331Z,6.16
2023-02-11T07:40:11.547Z,6.16
2023-02-11T07:42:14.760Z,6.16
2023-02-11T07:44:18.717Z,6.18
2023-02-11T07:46:25.310Z,6.19
2023-02-11T07:48:28.422Z,6.19
2023-02-11T07:50:31.505Z,6.18
2023-02-11T07:52:34.558Z,6.19
2023-02-11T07:54:37.812Z,6.21
2023-02-11T07:56:41.030Z,6.22
2023-02-11T07:58:44.614Z,6.23
2023-02-11T08:00:47.724Z,6.24
2023-02-11T08:02:52.189Z,6.24
2023-02-11T08:04:55.373Z,6.26
2023-02-11T08:06:59.303Z,6.26
2023-02-11T08:09:05.970Z,6.27
2023-02-11T08:11:09.438Z,6.28
2023-02-11T08:13:12.471Z,6.30
2023-02-11T08:15:15.655Z,6.31
2023-02-11T08:17:18.885Z,6.31
2023-02-11T08:19:23.773Z,6.33
2023-02-11T08:21:27.609Z,6.34
2023-02-11T08:23:30.663Z,6.36
2023-02-11T08:25:34.090Z,6.38
2023-02-11T08:27:37.268Z,6.39
2023-02-11T08:29:40.285Z,6.39
2023-02-11T08:31:45.422Z,6.40
2023-02-11T08:33:48.601Z,6.41
2023-02-11T08:35:53.023Z,6.42
2023-02-11T08:37:56.217Z,6.44
2023-02-11T08:39:59.337Z,6.44
2023-02-11T08:42:02.435Z,6.46
2023-02-11T08:44:05.577Z,6.46
2023-02-11T08:46:09.108Z,6.49
2023-02-11T08:48:12.228Z,6.49
2023-02-11T08:50:15.293Z,6.50
2023-02-11T08:52:19.918Z,6.50
2023-02-11T08:54:23.074Z,6.51
2023-02-11T08:56:26.629Z,6.52
2023-02-11T08:58:29.986Z,6.53
2023-02-11T09:00:33.171Z,6.53
2023-02-11T09:02:36.348Z,6.54
2023-02-11T09:04:39.509Z,6.54
2023-02-11T09:06:43.050Z,6.53
2023-02-11T09:08:50.013Z,6.55
2023-02-11T09:10:53.339Z,6.56
2023-02-11T09:12:56.607Z,6.57
2023-02-11T09:14:59.945Z,6.58
2023-02-11T09:17:03.115Z,6.60
2023-02-11T09:19:06.745Z,6.60
2023-02-11T09:21:10.629Z,6.60
2023-02-11T09:23:13.933Z,6.62
2023-02-11T09:25:18.480Z,6.63
2023-02-11T09:27:21.599Z,6.63
2023-02-11T09:29:24.713Z,6.63
2023-02-11T09:31:29.540Z,6.65
2023-02-11T09:33:32.884Z,6.67
2023-02-11T09:35:36.042Z,6.69
2023-02-11T09:37:39.325Z,6.71
2023-02-11T09:39:42.380Z,6.73
2023-02-11T09:42:26.734Z,6.75
2023-02-11T09:44:33.474Z,6.78
2023-02-11T09:46:41.441Z,6.80
2023-02-11T09:48:47.378Z,6.84
2023-02-11T09:50:53.673Z,6.88
2023-02-11T09:53:01.174Z,6.92
2023-02-11T09:55:07.872Z,6.94
2023-02-11T09:57:26.555Z,6.98
2023-02-11T09:59:32.783Z,7.02
2023-02-11T10:01:41.162Z,7.05
2023-02-11T10:04:02.777Z,7.09
2023-02-11T10:06:20.014Z,7.11
2023-02-11T10:08:35.744Z,7.13
2023-02-11T10:10:52.028Z,7.14
2023-02-11T10:13:14.171Z,7.14
2023-02-11T10:15:27.115Z,7.15
2023-02-11T10:17:39.988Z,7.17
2023-02-11T10:19:55.296Z,7.17
2023-02-11T10:22:09.228Z,7.17
2023-02-11T10:24:15.574Z,7.19
2023-02-11T10:26:20.381Z,7.19
2023-02-11T10:28:26.163Z,7.17
2023-02-11T10:30:35.116Z,7.17
2023-02-11T10:32:45.178Z,7.15
2023-02-11T10:34:48.813Z,7.13
2023-02-11T10:36:52.003Z,7.12
2023-02-11T10:38:55.054Z,7.10
2023-02-11T10:40:58.130Z,7.09
2023-02-11T10:43:05.275Z,7.08
2023-02-11T10:45:17.735Z,7.07
2023-02-11T10:47:26.522Z,7.06
2023-02-11T10:49:42.160Z,7.07
2023-02-11T10:51:45.253Z,7.06
2023-02-11T10:53:49.910Z,7.07
2023-02-11T10:55:55.664Z,7.08
2023-02-11T10:58:01.713Z,7.10
2023-02-11T11:00:21.449Z,7.10
2023-02-11T11:02:32.089Z,7.11
2023-02-11T11:04:44.014Z,7.12
2023-02-11T11:06:47.167Z,7.13
2023-02-11T11:08:51.887Z,7.13
2023-02-11T11:11:05.109Z,7.14
2023-02-11T11:13:25.801Z,7.13
2023-02-11T11:15:30.842Z,7.13
2023-02-11T11:17:35.525Z,7.11
2023-02-11T11:19:39.230Z,7.11
2023-02-11T11:21:44.075Z,7.10
2023-02-11T11:23:57.508Z,7.09
2023-02-11T11:26:05.236Z,7.10
2023-02-11T11:28:21.285Z,7.11
2023-02-11T11:30:28.613Z,7.12
2023-02-11T11:32:33.958Z,7.14
2023-02-11T11:34:41.859Z,7.15
2023-02-11T11:36:45.206Z,7.19
2023-02-11T11:38:54.331Z,7.22
2023-02-11T11:41:20.040Z,7.23
2023-02-11T11:43:23.892Z,7.26
2023-02-11T11:45:28.271Z,7.27
2023-02-11T11:47:40.935Z,7.28
2023-02-11T11:49:52.133Z,7.29
2023-02-11T11:52:04.847Z,7.31
2023-02-11T11:54:12.394Z,7.32
2023-02-11T11:56:17.914Z,7.34
2023-02-11T11:58:23.534Z,7.35
2023-02-11T12:00:32.853Z,7.35
2023-02-11T12:03:14.464Z,7.37
2023-02-11T12:05:26.728Z,7.38
2023-02-11T12:07:45.320Z,7.38
2023-02-11T12:10:05.442Z,7.38
2023-02-11T12:12:24.251Z,7.39
2023-02-11T12:14:36.138Z,7.40
2023-02-11T12:16:51.872Z,7.40
2023-02-11T12:19:15.632Z,7.40
2023-02-11T12:21:45.706Z,7.39
2023-02-11T12:24:09.484Z,7.39
2023-02-11T12:26:16.934Z,7.40
2023-02-11T12:28:30.658Z,7.40
2023-02-11T12:30:55.197Z,7.40
2023-02-11T12:33:10.206Z,7.40
2023-02-11T12:35:37.108Z,7.42
2023-02-11T12:37:59.447Z,7.43
2023-02-11T12:40:14.455Z,7.45
2023-02-11T12:42:48.217Z,7.45
2023-02-11T12:45:10.059Z,7.45
2023-02-11T12:47:21.111Z,7.45
2023-02-11T12:49:38.278Z,7.44
2023-02-11T12:52:00.277Z,7.42
2023-02-11T12:54:17.005Z,7.42
2023-02-11T12:56:25.634Z,7.42
2023-02-11T12:58:44.623Z,7.42
2023-02-11T13:00:52.684Z,7.41
2023-02-11T13:03:01.327Z,7.41
2023-02-11T13:05:14.030Z,7.42
2023-02-11T13:07:24.124Z,7.43
2023-02-11T13:09:35.931Z,7.43
2023-02-11T13:11:41.363Z,7.45
2023-02-11T13:13:51.471Z,7.45
2023-02-11T13:15:57.265Z,7.46
2023-02-11T13:18:06.441Z,7.47
2023-02-11T13:20:19.573Z,7.47
2023-02-11T13:22:31.619Z,7.47
2023-02-11T13:24:44.807Z,7.46
2023-02-11T13:26:57.712Z,7.48
2023-02-11T13:29:14.185Z,7.47
2023-02-11T13:31:20.232Z,7.47
2023-02-11T13:33:34.214Z,7.48
2023-02-11T13:35:40.288Z,7.50
2023-02-11T13:37:49.000Z,7.52
2023-02-11T13:40:01.584Z,7.54
2023-02-11T13:42:05.900Z,7.54
2023-02-11T13:44:29.213Z,7.55
2023-02-11T13:46:53.869Z,7.58
2023-02-11T13:48:57.816Z,7.58
2023-02-11T13:51:03.100Z,7.59
2023-02-11T13:53:08.728Z,7.60
2023-02-11T13:55:23.830Z,7.60
2023-02-11T13:57:49.622Z,7.59
2023-02-11T13:59:54.218Z,7.58
2023-02-11T14:02:24.359Z,7.57
2023-02-11T14:04:47.971Z,7.54
2023-02-11T14:07:47.066Z,7.52
2023-02-11T14:09:57.261Z,7.51
2023-02-11T14:12:35.829Z,7.49
2023-02-11T14:15:02.357Z,7.50
2023-02-11T14:17:31.951Z,7.49
2023-02-11T14:19:36.320Z,7.47
2023-02-11T14:21:43.136Z,7.48
2023-02-11T14:23:47.204Z,7.47
2023-02-11T14:26:02.505Z,7.47
2023-02-11T14:28:17.679Z,7.47
2023-02-11T14:30:57.759Z,7.46
2023-02-11T14:33:40.027Z,7.45
2023-02-11T14:35:52.063Z,7.46
2023-02-11T14:38:04.757Z,7.45
2023-02-11T14:40:19.411Z,7.46
2023-02-11T14:42:26.847Z,7.46
2023-02-11T14:44:34.205Z,7.46
2023-02-11T14:46:37.396Z,7.47
2023-02-11T14:48:45.960Z,7.47
2023-02-11T14:50:52.640Z,7.46
2023-02-11T14:52:57.017Z,7.46
2023-02-11T14:55:34.460Z,7.45
2023-02-11T14:57:37.976Z,7.43
2023-02-11T14:59:56.007Z,7.40
2023-02-11T15:01:59.510Z,7.38
2023-02-11T15:04:03.655Z,7.36
2023-02-11T15:06:15.101Z,7.32
2023-02-11T15:08:18.356Z,7.28
2023-02-11T15:10:29.716Z,7.24
2023-02-11T15:12:32.907Z,7.21
2023-02-11T15:14:37.734Z,7.17
2023-02-11T15:16:45.892Z,7.13
2023-02-11T15:18:52.763Z,7.09
2023-02-11T15:20:56.072Z,7.07
2023-02-11T15:23:02.681Z,7.04
2023-02-11T15:25:14.660Z,7.01
2023-02-11T15:27:18.506Z,6.98
2023-02-11T15:29:21.622Z,6.96
2023-02-11T15:31:26.474Z,6.94
2023-02-11T15:33:32.249Z,6.93
2023-02-11T15:35:39.812Z,6.93
2023-02-11T15:37:43.010Z,6.90
2023-02-11T15:39:46.465Z,6.89
2023-02-11T15:41:49.688Z,6.87
2023-02-11T15:43:52.745Z,6.87
2023-02-11T15:45:59.978Z,6.86
2023-02-11T15:48:13.560Z,6.86
2023-02-11T15:50:23.536Z,6.84
2023-02-11T15:52:28.557Z,6.82
2023-02-11T15:54:32.726Z,6.80
2023-02-11T15:56:43.076Z,6.76
2023-02-11T15:58:50.334Z,6.75
2023-02-11T16:00:59.769Z,6.73
2023-02-11T16:03:03.215Z,6.70
2023-02-11T16:05:08.764Z,6.68
2023-02-11T16:07:45.573Z,6.67
2023-02-11T16:09:59.082Z,6.66
2023-02-11T16:12:04.614Z,6.64
2023-02-11T16:14:23.213Z,6.63
2023-02-11T16:16:31.587Z,6.64
2023-02-11T16:18:39.590Z,6.64
2023-02-11T16:20:48.463Z,6.64
2023-02-11T16:22:53.670Z,6.63
2023-02-11T16:25:00.536Z,6.63
2023-02-11T16:27:06.285Z,6.62
2023-02-11T16:29:13.978Z,6.62
2023-02-11T16:31:17.448Z,6.63
2023-02-11T16:33:21.520Z,6.63
2023-02-11T16:35:24.594Z,6.63
2023-02-11T16:37:27.807Z,6.62
2023-02-11T16:39:32.597Z,6.63
2023-02-11T16:41:35.814Z,6.61
2023-02-11T16:43:39.126Z,6.62
2023-02-11T16:45:42.558Z,6.62
2023-02-11T16:47:46.198Z,6.62
2023-02-11T16:49:52.569Z,6.63
2023-02-11T16:51:57.733Z,6.63
2023-02-11T16:54:01.254Z,6.64
2023-02-11T16:56:06.321Z,6.64
2023-02-11T16:58:09.497Z,6.65
2023-02-11T17:00:17.486Z,6.64
2023-02-11T17:02:27.723Z,6.64
2023-02-11T17:04:33.702Z,6.65
2023-02-11T17:06:37.063Z,6.65
2023-02-11T17:08:42.492Z,6.63
2023-02-11T17:10:46.442Z,6.64
2023-02-11T17:12:53.394Z,6.63
2023-02-11T17:14:56.561Z,6.63
2023-02-11T17:17:00.118Z,6.64
2023-02-11T17:19:03.484Z,6.64
2023-02-11T17:21:07.868Z,6.64
2023-02-11T17:23:12.490Z,6.63
2023-02-11T17:25:19.134Z,6.64
2023-02-11T17:27:26.509Z,6.64
2023-02-11T17:29:31.209Z,6.63
2023-02-11T17:31:34.937Z,6.64
2023-02-11T17:33:38.930Z,6.64
2023-02-11T17:35:42.123Z,6.63
2023-02-11T17:37:45.284Z,6.63
2023-02-11T17:39:53.992Z,6.62
2023-02-11T17:41:57.573Z,6.61
2023-02-11T17:44:02.053Z,6.60
2023-02-11T17:46:10.672Z,6.59
2023-02-11T17:48:13.920Z,6.57
2023-02-11T17:50:17.330Z,6.56
2023-02-11T17:52:21.536Z,6.56
2023-02-11T17:54:25.083Z,6.55
2023-02-11T17:56:29.907Z,6.55
2023-02-11T17:58:33.321Z,6.54
2023-02-11T18:00:36.444Z,6.52
2023-02-11T18:02:40.958Z,6.52
2023-02-11T18:04:44.288Z,6.51
2023-02-11T18:06:49.291Z,6.52
2023-02-11T18:08:58.084Z,6.52
2023-02-11T18:11:02.139Z,6.52
2023-02-11T18:13:05.339Z,6.52
2023-02-11T18:15:08.798Z,6.52
2023-02-11T18:17:12.195Z,6.53
2023-02-11T18:19:17.196Z,6.53
2023-02-11T18:21:23.852Z,6.54
2023-02-11T18:23:27.806Z,6.54
2023-02-11T18:25:31.131Z,6.54
2023-02-11T18:27:34.480Z,6.55
2023-02-11T18:29:37.721Z,6.56
2023-02-11T18:31:41.280Z,6.56
2023-02-11T18:33:44.638Z,6.57
2023-02-11T18:35:50.067Z,6.57
2023-02-11T18:37:53.773Z,6.58
2023-02-11T18:39:56.957Z,6.59
2023-02-11T18:42:00.183Z,6.59
2023-02-11T18:44:04.927Z,6.61
2023-02-11T18:46:10.429Z,6.61
2023-02-11T18:48:14.063Z,6.63
2023-02-11T18:50:17.356Z,6.63
2023-02-11T18:52:21.924Z,6.65
2023-02-11T18:54:25.189Z,6.66
2023-02-11T18:56:28.954Z,6.66
2023-02-11T18:58:32.199Z,6.67
2023-02-11T19:00:36.836Z,6.68
2023-02-11T19:02:40.525Z,6.68
2023-02-11T19:04:44.256Z,6.68
2023-02-11T19:06:49.710Z,6.69
2023-02-11T19:08:58.189Z,6.69
2023-02-11T19:11:05.966Z,6.69
2023-02-11T19:13:12.180Z,6.69
2023-02-11T19:15:16.112Z,6.69
2023-02-11T19:17:20.830Z,6.70
2023-02-11T19:19:28.149Z,6.71
2023-02-11T19:21:31.726Z,6.73
2023-02-11T19:23:35.156Z,6.73
2023-02-11T19:25:46.567Z,6.73
2023-02-11T19:27:49.905Z,6.74
2023-02-11T19:29:53.267Z,6.74
2023-02-11T19:31:57.121Z,6.73
2023-02-11T19:34:01.137Z,6.73
2023-02-11T19:36:06.892Z,6.73
2023-02-11T19:38:10.658Z,6.73
2023-02-11T19:40:15.520Z,6.74
2023-02-11T19:42:20.381Z,6.74
2023-02-11T19:44:23.614Z,6.75
2023-02-11T19:46:29.895Z,6.76
2023-02-11T19:48:33.384Z,6.75
2023-02-11T19:50:37.560Z,6.76
2023-02-11T19:52:41.957Z,6.76
2023-02-11T19:54:46.661Z,6.76
2023-02-11T19:56:50.306Z,6.77
2023-02-11T19:58:55.407Z,6.78
2023-02-11T20:01:08.189Z,6.78
2023-02-11T20:03:12.532Z,6.78
2023-02-11T20:05:16.740Z,6.77
2023-02-11T20:07:20.462Z,6.77
2023-02-11T20:09:23.731Z,6.77
2023-02-11T20:11:28.343Z,6.77
2023-02-11T20:13:31.876Z,6.76
2023-02-11T20:15:36.687Z,6.76
2023-02-11T20:17:40.051Z,6.76
2023-02-11T20:19:43.147Z,6.76
2023-02-11T20:21:47.780Z,6.75
2023-02-11T20:23:52.175Z,6.75
2023-02-11T20:25:55.323Z,6.77
2023-02-11T20:27:58.551Z,6.78
2023-02-11T20:30:02.119Z,6.77
2023-02-11T20:32:07.315Z,6.78
2023-02-11T20:34:12.087Z,6.78
2023-02-11T20:36:18.120Z,6.78
2023-02-11T20:38:21.466Z,6.78
2023-02-11T20:40:24.948Z,6.78
2023-02-11T20:42:28.521Z,6.79
2023-02-11T20:44:31.709Z,6.78
2023-02-11T20:46:36.240Z,6.78
2023-02-11T20:48:40.880Z,6.78
2023-02-11T20:50:46.573Z,6.77
2023-02-11T20:52:51.052Z,6.77
2023-02-11T20:54:54.573Z,6.76
2023-02-11T20:56:58.382Z,6.76
2023-02-11T20:59:04.036Z,6.76
2023-02-11T21:01:13.914Z,6.77
2023-02-11T21:03:17.176Z,6.76
2023-02-11T21:05:22.424Z,6.74
2023-02-11T21:07:29.196Z,6.74
2023-02-11T21:09:33.726Z,6.74
2023-02-11T21:11:37.411Z,6.73
2023-02-11T21:13:42.700Z,6.72
2023-02-11T21:15:46.298Z,6.71
2023-02-11T21:17:49.773Z,6.70
2023-02-11T21:19:53.119Z,6.67
2023-02-11T21:22:00.647Z,6.66
2023-02-11T21:24:06.243Z,6.66
2023-02-11T21:26:10.315Z,6.65
2023-02-11T21:28:13.689Z,6.64
2023-02-11T21:30:17.441Z,6.63
2023-02-11T21:32:20.469Z,6.62
2023-02-11T21:34:23.586Z,6.63
2023-02-11T21:36:27.885Z,6.62
2023-02-11T21:38:32.815Z,6.60
2023-02-11T21:40:36.007Z,6.59
2023-02-11T21:42:39.218Z,6.58
2023-02-11T21:44:42.479Z,6.58
2023-02-11T21:46:45.740Z,6.56
2023-02-11T21:48:49.658Z,6.55
2023-02-11T21:50:52.870Z,6.55
2023-02-11T21:52:56.147Z,6.54
2023-02-11T21:55:00.684Z,6.52
2023-02-11T21:57:04.175Z,6.52
2023-02-11T21:59:07.362Z,6.50
2023-02-11T22:01:15.213Z,6.47
2023-02-11T22:03:18.371Z,6.47
2023-02-11T22:05:21.790Z,6.47
2023-02-11T22:07:27.424Z,6.49
2023-02-11T22:09:31.099Z,6.47
2023-02-11T22:11:35.979Z,6.47
2023-02-11T22:13:39.769Z,6.46
2023-02-11T22:15:42.928Z,6.45
2023-02-11T22:17:45.990Z,6.43
2023-02-11T22:19:49.291Z,6.41
2023-02-11T22:21:52.437Z,6.40
2023-02-11T22:23:56.889Z,6.40
2023-02-11T22:26:04.123Z,6.37
2023-02-11T22:28:08.691Z,6.35
2023-02-11T22:30:12.746Z,6.34
2023-02-11T22:32:17.791Z,6.32
2023-02-11T22:34:20.998Z,6.31
2023-02-11T22:36:26.146Z,6.29
2023-02-11T22:38:29.740Z,6.27
2023-02-11T22:40:32.986Z,6.26
2023-02-11T22:42:36.154Z,6.26
2023-02-11T22:44:40.794Z,6.25
2023-02-11T22:46:44.646Z,6.24
2023-02-11T22:48:48.640Z,6.23
2023-02-11T22:50:51.999Z,6.22
2023-02-11T22:52:55.534Z,6.21
2023-02-11T22:55:00.368Z,6.21
2023-02-11T22:57:03.762Z,6.20
2023-02-11T22:59:09.423Z,6.19
2023-02-11T23:01:14.481Z,6.19
2023-02-11T23:03:17.818Z,6.20
2023-02-11T23:05:20.878Z,6.18
2023-02-11T23:07:23.998Z,6.19
2023-02-11T23:09:27.144Z,6.20
2023-02-11T23:11:31.828Z,6.19
2023-02-11T23:13:36.466Z,6.19
2023-02-11T23:15:40.805Z,6.20
2023-02-11T23:17:45.330Z,6.21
2023-02-11T23:19:48.486Z,6.21
2023-02-11T23:21:52.654Z,6.21
2023-02-11T23:23:57.530Z,6.20
2023-02-11T23:26:00.825Z,6.20
2023-02-11T23:28:03.929Z,6.19
2023-02-11T23:30:08.346Z,6.19
2023-02-11T23:32:11.603Z,6.19
2023-02-11T23:34:17.294Z,6.20
2023-02-11T23:36:21.782Z,6.19
2023-02-11T23:38:24.840Z,6.18
2023-02-11T23:40:28.022Z,6.18
2023-02-11T23:42:31.441Z,6.18
2023-02-11T23:44:34.527Z,6.17
2023-02-11T23:46:37.878Z,6.16
2023-02-11T23:48:41.402Z,6.15
2023-02-11T23:50:46.218Z,6.15
2023-02-11T23:52:49.684Z,6.15
2023-02-11T23:54:53.189Z,6.16
2023-02-11T23:56:56.337Z,6.16
2023-02-11T23:59:00.051Z,6.15
